Time;durP1;ratioP1;P1;durP2;ratioP2;P2;SDS_P1;SDS_P2;PMS_P1;PMS_P2;Temp;Humidity;BMP_temperature;BMP_pressure;BME280_temperature;BME280_humidity;BME280_pressure;Samples;Min_cycle;Max_cycle;Signal;HPM_P1;HPM_P2
2020/12/20 00:00:02;;;;;;;2.13;1.75;;;12.40;71.10;;;;;;5002653;28;20485;-76
2020/12/20 00:02:28;;;;;;;1.98;1.70;;;12.40;71.30;;;;;;5008285;28;20089;-75
2020/12/20 00:04:53;;;;;;;2.17;1.85;;;12.50;71.40;;;;;;5000855;28;20030;-76
2020/12/20 00:07:19;;;;;;;1.67;1.50;;;12.40;71.50;;;;;;5008549;28;20045;-77
2020/12/20 00:09:44;;;;;;;1.73;1.58;;;12.50;71.50;;;;;;5007866;28;20064;-76
2020/12/20 00:12:10;;;;;;;2.03;1.75;;;12.40;71.40;;;;;;5011763;28;20092;-76
2020/12/20 00:14:36;;;;;;;2.45;1.90;;;12.40;71.30;;;;;;5010314;28;20475;-76
2020/12/20 00:17:04;;;;;;;1.95;1.55;;;12.40;71.20;;;;;;5012479;28;20048;-75
2020/12/20 00:19:31;;;;;;;1.92;1.73;;;12.40;71.20;;;;;;5004758;28;20511;-76
2020/12/20 00:22:00;;;;;;;2.40;1.90;;;12.40;71.20;;;;;;5011718;28;20516;-76
2020/12/20 00:24:26;;;;;;;2.33;1.65;;;12.40;71.20;;;;;;5007713;28;20031;-76
2020/12/20 00:26:52;;;;;;;2.05;1.77;;;12.40;71.20;;;;;;5010415;28;20668;-76
2020/12/20 00:29:17;;;;;;;2.42;1.83;;;12.40;71.30;;;;;;5010686;28;20034;-75
2020/12/20 00:31:43;;;;;;;1.70;1.58;;;12.40;71.40;;;;;;5003924;28;20044;-76
2020/12/20 00:34:09;;;;;;;2.20;1.75;;;12.30;71.50;;;;;;5009488;28;20412;-76
2020/12/20 00:36:34;;;;;;;2.25;1.65;;;12.30;71.60;;;;;;5009977;28;20038;-75
2020/12/20 00:39:01;;;;;;;1.50;1.40;;;12.30;71.70;;;;;;5012141;28;20037;-75
2020/12/20 00:41:26;;;;;;;1.80;1.60;;;12.30;71.80;;;;;;5011476;28;20038;-74
2020/12/20 00:43:52;;;;;;;3.22;1.70;;;12.30;71.90;;;;;;5010013;28;20034;-76
2020/12/20 00:46:17;;;;;;;2.10;1.45;;;12.40;72.00;;;;;;5011660;28;20062;-77
2020/12/20 00:48:43;;;;;;;1.63;1.30;;;12.40;72.00;;;;;;5011679;28;20547;-76
2020/12/20 00:51:09;;;;;;;2.97;1.75;;;12.50;72.10;;;;;;5007315;28;20077;-76
2020/12/20 00:53:37;;;;;;;2.38;1.88;;;12.40;72.10;;;;;;5011471;28;20489;-76
2020/12/20 00:56:03;;;;;;;1.67;1.27;;;12.50;72.10;;;;;;5004700;28;20400;-76
2020/12/20 00:58:29;;;;;;;1.90;1.38;;;12.60;72.20;;;;;;5005089;28;20034;-76
2020/12/20 01:00:55;;;;;;;2.25;1.80;;;12.50;72.00;;;;;;5011017;28;20037;-76
2020/12/20 01:03:20;;;;;;;1.48;1.23;;;12.50;72.00;;;;;;5008351;28;20026;-76
2020/12/20 01:05:46;;;;;;;1.88;1.70;;;12.60;72.00;;;;;;5006853;28;20030;-76
2020/12/20 01:08:12;;;;;;;1.40;1.25;;;12.60;71.90;;;;;;5008685;28;20508;-76
2020/12/20 01:10:37;;;;;;;2.10;1.90;;;12.60;71.80;;;;;;5009298;28;20113;-75
2020/12/20 01:13:03;;;;;;;1.92;1.75;;;12.60;71.70;;;;;;5007457;28;20041;-75
2020/12/20 01:15:29;;;;;;;4.80;1.83;;;12.70;71.70;;;;;;5008805;28;20042;-74
2020/12/20 01:17:56;;;;;;;1.80;1.35;;;12.60;71.50;;;;;;5008314;28;20451;-74
2020/12/20 01:20:22;;;;;;;2.00;1.17;;;12.60;71.50;;;;;;5005070;28;20404;-75
2020/12/20 01:22:48;;;;;;;2.03;1.67;;;12.50;71.30;;;;;;5008471;28;20568;-77
2020/12/20 01:25:14;;;;;;;1.70;1.48;;;12.60;71.70;;;;;;5008741;28;20136;-77
2020/12/20 01:27:39;;;;;;;1.95;1.60;;;12.70;71.40;;;;;;5006619;28;20130;-76
2020/12/20 01:30:06;;;;;;;2.80;1.65;;;12.50;71.20;;;;;;5009371;28;20034;-77
2020/12/20 01:32:31;;;;;;;3.67;1.60;;;12.50;71.20;;;;;;5007778;28;20022;-75
2020/12/20 01:34:57;;;;;;;2.10;1.70;;;12.50;71.20;;;;;;5004669;28;20037;-75
2020/12/20 01:37:22;;;;;;;2.40;2.05;;;12.50;71.20;;;;;;5008268;28;20509;-77
2020/12/20 01:39:48;;;;;;;1.88;1.55;;;12.50;71.10;;;;;;5009143;28;20026;-76
2020/12/20 01:42:13;;;;;;;2.10;1.40;;;12.40;71.10;;;;;;5008747;28;20034;-76
2020/12/20 01:44:39;;;;;;;2.40;1.48;;;12.40;71.20;;;;;;5009103;28;20484;-77
2020/12/20 01:47:05;;;;;;;1.88;1.52;;;12.30;71.10;;;;;;5009583;28;20042;-76
2020/12/20 01:49:30;;;;;;;2.10;1.90;;;12.30;71.20;;;;;;5005152;28;20379;-77
2020/12/20 01:51:56;;;;;;;3.70;1.70;;;12.30;71.40;;;;;;5009196;28;20030;-76
2020/12/20 01:54:22;;;;;;;1.65;1.50;;;12.20;71.50;;;;;;5008733;28;20123;-76
2020/12/20 01:56:48;;;;;;;1.73;1.40;;;12.20;71.60;;;;;;5007765;28;20396;-76
2020/12/20 01:59:13;;;;;;;1.58;1.48;;;12.20;71.80;;;;;;5005145;28;20037;-76
2020/12/20 02:01:39;;;;;;;3.60;1.52;;;12.20;71.90;;;;;;5008768;28;20436;-76
2020/12/20 02:04:04;;;;;;;1.55;1.45;;;12.20;72.00;;;;;;5006468;28;20721;-74
2020/12/20 02:06:30;;;;;;;1.50;1.40;;;12.40;72.20;;;;;;4999575;28;20038;-75
2020/12/20 02:08:55;;;;;;;2.13;1.60;;;12.30;72.20;;;;;;5002089;28;20141;-76
2020/12/20 02:11:21;;;;;;;2.28;1.60;;;12.30;72.20;;;;;;5007865;28;20049;-76
2020/12/20 02:13:49;;;;;;;1.98;1.55;;;12.30;72.30;;;;;;5008424;28;20088;-74
2020/12/20 02:16:17;;;;;;;1.85;1.50;;;12.30;72.20;;;;;;4991093;28;20053;-76
2020/12/20 02:18:43;;;;;;;1.90;1.48;;;12.50;72.30;;;;;;5007814;28;20030;-78
2020/12/20 02:21:19;;;;;;;1.73;1.45;;;12.40;72.10;;;;;;5003910;28;20034;-76
2020/12/20 02:23:47;;;;;;;2.65;1.70;;;12.40;72.00;;;;;;5007064;28;20056;-76
2020/12/20 02:26:14;;;;;;;1.48;1.35;;;12.40;72.00;;;;;;5007996;28;20040;-75
2020/12/20 02:28:40;;;;;;;2.00;1.60;;;12.50;71.90;;;;;;5006676;28;20046;-76
2020/12/20 02:31:06;;;;;;;2.08;1.65;;;12.50;71.80;;;;;;5002802;28;20042;-76
2020/12/20 02:33:32;;;;;;;1.58;1.20;;;12.50;71.70;;;;;;5007456;28;20022;-78
2020/12/20 02:35:58;;;;;;;1.17;1.08;;;12.60;71.70;;;;;;5003140;28;20034;-76
2020/12/20 02:38:23;;;;;;;2.08;1.70;;;12.50;71.60;;;;;;5009129;28;20034;-76
2020/12/20 02:40:49;;;;;;;1.83;1.70;;;12.60;71.60;;;;;;5008513;28;20022;-76
2020/12/20 02:43:14;;;;;;;2.70;1.27;;;12.50;71.50;;;;;;5007168;28;20045;-76
2020/12/20 02:45:40;;;;;;;1.83;1.38;;;12.40;71.40;;;;;;5006735;28;20955;-75
2020/12/20 02:48:05;;;;;;;1.58;1.48;;;12.40;71.40;;;;;;5007103;28;20038;-75
2020/12/20 02:50:31;;;;;;;1.60;1.27;;;12.40;71.40;;;;;;5006254;28;20030;-77
2020/12/20 02:52:56;;;;;;;1.70;1.50;;;12.40;71.30;;;;;;5007497;28;20770;-76
2020/12/20 02:55:22;;;;;;;1.65;1.50;;;12.50;71.30;;;;;;5008644;28;20036;-76
2020/12/20 02:57:47;;;;;;;1.80;1.55;;;12.40;71.30;;;;;;5007293;28;20026;-77
2020/12/20 03:00:13;;;;;;;1.42;1.25;;;12.30;71.10;;;;;;5006152;28;20125;-75
2020/12/20 03:02:38;;;;;;;2.15;1.80;;;12.30;71.00;;;;;;5007159;28;20507;-76
2020/12/20 03:05:04;;;;;;;1.60;1.40;;;12.20;70.90;;;;;;5004742;28;20103;-76
2020/12/20 03:07:29;;;;;;;1.98;1.80;;;12.20;70.90;;;;;;5006065;28;20049;-76
2020/12/20 03:09:55;;;;;;;2.10;1.88;;;12.20;70.90;;;;;;5007575;28;20030;-76
2020/12/20 03:12:22;;;;;;;2.55;1.90;;;12.10;70.80;;;;;;4992592;28;20253;-76
2020/12/20 03:14:48;;;;;;;2.10;1.90;;;12.10;70.80;;;;;;5005203;28;20523;-76
2020/12/20 03:17:13;;;;;;;1.48;1.38;;;11.90;70.80;;;;;;5068472;23;20037;-83
2020/12/20 03:19:39;;;;;;;1.60;1.42;;;11.90;70.90;;;;;;5031170;28;20040;-83
2020/12/20 03:22:04;;;;;;;1.70;1.30;;;11.90;70.90;;;;;;5023585;28;20073;-83
2020/12/20 03:24:30;;;;;;;1.70;1.40;;;11.80;70.90;;;;;;5025950;28;20503;-83
2020/12/20 03:26:55;;;;;;;2.08;1.73;;;11.80;71.00;;;;;;5025883;28;20037;-83
2020/12/20 03:29:21;;;;;;;2.22;2.03;;;11.80;71.00;;;;;;5029878;28;20030;-83
2020/12/20 03:31:46;;;;;;;2.67;1.73;;;11.70;71.10;;;;;;5025164;28;20038;-83
2020/12/20 03:34:12;;;;;;;2.42;2.03;;;11.70;71.10;;;;;;5025318;28;20420;-84
2020/12/20 03:36:37;;;;;;;1.95;1.77;;;11.60;71.10;;;;;;5031029;28;20030;-83
2020/12/20 03:39:03;;;;;;;1.83;1.52;;;11.60;71.10;;;;;;5024080;28;20416;-82
2020/12/20 03:41:29;;;;;;;2.40;1.65;;;11.60;71.20;;;;;;5023936;28;20056;-83
2020/12/20 03:43:54;;;;;;;2.35;2.00;;;11.50;71.10;;;;;;5027863;28;20037;-82
2020/12/20 03:46:20;;;;;;;1.90;1.67;;;11.50;71.20;;;;;;5016689;28;20121;-82
2020/12/20 03:48:45;;;;;;;1.95;1.63;;;11.50;71.40;;;;;;5020667;28;20034;-83
2020/12/20 03:51:11;;;;;;;1.90;1.60;;;11.40;71.40;;;;;;5011168;28;20448;-82
2020/12/20 03:53:36;;;;;;;1.67;1.58;;;11.40;71.50;;;;;;5012510;28;20061;-83
2020/12/20 03:56:04;;;;;;;2.05;1.45;;;11.40;71.60;;;;;;5010692;28;20030;-82
2020/12/20 03:58:29;;;;;;;2.00;1.63;;;11.50;71.80;;;;;;5010210;28;20038;-83
2020/12/20 04:00:54;;;;;;;1.50;1.27;;;11.40;71.80;;;;;;5031319;28;20033;-83
2020/12/20 04:03:20;;;;;;;2.08;1.65;;;11.40;71.80;;;;;;5017636;28;20574;-83
2020/12/20 04:05:45;;;;;;;1.65;1.33;;;11.40;71.90;;;;;;5018456;28;20100;-83
2020/12/20 04:08:11;;;;;;;1.67;1.58;;;11.40;71.90;;;;;;5019232;28;20030;-83
2020/12/20 04:10:36;;;;;;;1.77;1.35;;;11.40;72.00;;;;;;5018566;28;20404;-84
2020/12/20 04:13:02;;;;;;;2.92;1.98;;;11.40;72.00;;;;;;5010103;28;20053;-82
2020/12/20 04:15:27;;;;;;;1.40;1.30;;;11.40;72.00;;;;;;5018444;28;20524;-83
2020/12/20 04:17:53;;;;;;;2.20;1.73;;;11.50;72.00;;;;;;5017621;28;20045;-83
2020/12/20 04:20:18;;;;;;;1.85;1.48;;;11.60;72.10;;;;;;5016609;28;20042;-83
2020/12/20 04:22:44;;;;;;;2.50;1.55;;;11.40;71.90;;;;;;5016380;28;20030;-83
2020/12/20 04:25:09;;;;;;;1.50;1.40;;;11.40;71.90;;;;;;5012065;28;20033;-83
2020/12/20 04:27:35;;;;;;;1.95;1.75;;;11.40;71.80;;;;;;5010108;28;20049;-83
2020/12/20 04:30:00;;;;;;;1.70;1.60;;;11.50;71.90;;;;;;5017842;28;20034;-83
2020/12/20 04:32:26;;;;;;;1.90;1.67;;;11.50;71.90;;;;;;5020455;28;20417;-82
2020/12/20 04:34:51;;;;;;;2.25;1.58;;;11.40;71.80;;;;;;5037235;28;20034;-83
2020/12/20 04:37:17;;;;;;;2.10;1.90;;;11.50;71.80;;;;;;5038640;28;20030;-83
2020/12/20 04:39:43;;;;;;;2.33;2.03;;;11.50;71.80;;;;;;5039397;28;20021;-83
2020/12/20 04:42:09;;;;;;;2.17;1.98;;;11.40;71.70;;;;;;5037564;28;20492;-83
2020/12/20 04:44:35;;;;;;;2.08;1.80;;;11.50;71.80;;;;;;5035783;28;20037;-83
2020/12/20 04:47:02;;;;;;;2.08;1.88;;;11.70;71.90;;;;;;5037166;28;20021;-83
2020/12/20 04:49:29;;;;;;;1.90;1.63;;;11.50;71.90;;;;;;5037670;28;20033;-83
2020/12/20 04:51:57;;;;;;;2.42;1.88;;;11.50;72.00;;;;;;5037561;28;20037;-83
2020/12/20 04:54:24;;;;;;;2.92;1.90;;;11.50;72.00;;;;;;5039776;28;20554;-83
2020/12/20 04:56:49;;;;;;;2.90;1.98;;;11.50;72.10;;;;;;5040111;28;20507;-83
2020/12/20 04:59:15;;;;;;;1.48;1.30;;;11.50;72.00;;;;;;5042310;28;20033;-83
2020/12/20 05:01:41;;;;;;;2.10;1.75;;;11.50;72.00;;;;;;5034552;28;20029;-83
2020/12/20 05:04:06;;;;;;;2.30;1.85;;;11.50;71.90;;;;;;5040095;28;20056;-83
2020/12/20 05:06:33;;;;;;;1.88;1.45;;;11.50;71.90;;;;;;5040683;28;20097;-83
2020/12/20 05:09:07;;;;;;;2.65;2.13;;;11.60;71.90;;;;;;5041031;28;20037;-83
2020/12/20 05:11:37;;;;;;;2.22;2.00;;;11.50;71.80;;;;;;5037337;28;20037;-83
2020/12/20 05:14:07;;;;;;;1.88;1.67;;;11.50;71.80;;;;;;5032240;28;20485;-83
2020/12/20 05:16:35;;;;;;;2.40;2.20;;;11.50;71.70;;;;;;5041288;28;20034;-82
2020/12/20 05:19:03;;;;;;;1.90;1.70;;;11.60;71.80;;;;;;5040576;28;20037;-83
2020/12/20 05:21:29;;;;;;;2.13;1.52;;;11.70;71.80;;;;;;5040572;28;20037;-83
2020/12/20 05:23:55;;;;;;;1.98;1.65;;;11.50;71.80;;;;;;5040810;28;20029;-83
2020/12/20 05:26:26;;;;;;;1.73;1.60;;;11.50;71.80;;;;;;5040536;28;20042;-83
2020/12/20 05:28:53;;;;;;;1.85;1.55;;;11.50;71.80;;;;;;5039000;28;20526;-83
2020/12/20 05:31:20;;;;;;;1.75;1.65;;;11.60;71.80;;;;;;5042864;28;20033;-83
2020/12/20 05:33:46;;;;;;;2.65;2.10;;;11.50;71.80;;;;;;5041778;28;20064;-83
2020/12/20 05:36:11;;;;;;;2.88;2.30;;;11.50;71.80;;;;;;5040778;28;21423;-83
2020/12/20 05:38:37;;;;;;;1.95;1.75;;;11.40;71.70;;;;;;5041025;28;20037;-83
2020/12/20 05:41:04;;;;;;;1.90;1.67;;;11.50;71.80;;;;;;5033384;28;20224;-83
2020/12/20 05:43:30;;;;;;;1.60;1.50;;;11.50;71.90;;;;;;5039742;28;20033;-83
2020/12/20 05:45:58;;;;;;;1.73;1.60;;;11.40;71.90;;;;;;5039056;28;20038;-81
2020/12/20 05:48:26;;;;;;;1.90;1.63;;;11.40;71.90;;;;;;5039801;28;20040;-83
2020/12/20 05:50:57;;;;;;;1.88;1.67;;;11.40;71.90;;;;;;5029565;28;20153;-83
2020/12/20 05:53:25;;;;;;;2.45;1.73;;;11.50;72.00;;;;;;5026491;28;20030;-83
2020/12/20 05:55:51;;;;;;;1.80;1.67;;;11.50;72.00;;;;;;5034122;28;20044;-83
2020/12/20 05:58:17;;;;;;;1.65;1.40;;;11.40;72.00;;;;;;5040738;28;20432;-83
2020/12/20 06:00:45;;;;;;;2.42;1.80;;;11.50;72.20;;;;;;5040371;28;20085;-83
2020/12/20 06:03:11;;;;;;;2.63;2.00;;;11.50;72.20;;;;;;5040165;28;20033;-83
2020/12/20 06:05:41;;;;;;;2.03;1.70;;;11.50;72.20;;;;;;5039429;28;20037;-83
2020/12/20 06:08:15;;;;;;;1.88;1.65;;;11.50;72.20;;;;;;5033896;28;20033;-83
2020/12/20 06:10:48;;;;;;;1.48;1.38;;;11.50;72.20;;;;;;5035903;28;20040;-84
2020/12/20 06:13:17;;;;;;;1.83;1.60;;;11.60;72.20;;;;;;5040158;28;20026;-83
2020/12/20 06:15:44;;;;;;;2.00;1.80;;;11.60;72.20;;;;;;5039766;28;20378;-83
2020/12/20 06:18:15;;;;;;;1.80;1.67;;;11.60;72.20;;;;;;5039917;28;20033;-83
2020/12/20 06:20:58;;;;;;;2.55;1.90;;;11.70;72.20;;;;;;5040161;28;20033;-83
2020/12/20 06:23:26;;;;;;;2.00;1.80;;;11.60;72.10;;;;;;5040544;28;20097;-83
2020/12/20 06:25:53;;;;;;;2.38;1.88;;;11.60;72.10;;;;;;5039421;28;20026;-83
2020/12/20 06:28:23;;;;;;;1.90;1.67;;;11.60;72.00;;;;;;5041222;28;20057;-83
2020/12/20 06:30:49;;;;;;;1.98;1.38;;;11.60;72.00;;;;;;5041187;28;20044;-82
2020/12/20 06:33:24;;;;;;;1.85;1.58;;;11.70;72.00;;;;;;5040184;28;20108;-81
2020/12/20 06:35:51;;;;;;;1.98;1.67;;;11.60;71.90;;;;;;5039171;28;20034;-83
2020/12/20 06:38:24;;;;;;;2.03;1.58;;;11.70;71.90;;;;;;5040210;28;20037;-83
2020/12/20 06:40:50;;;;;;;2.10;1.80;;;11.70;71.80;;;;;;5039999;28;20041;-83
2020/12/20 06:43:28;;;;;;;1.48;1.38;;;11.70;71.80;;;;;;5040075;28;20025;-83
2020/12/20 06:45:54;;;;;;;2.13;1.75;;;11.60;71.60;;;;;;5038859;28;20033;-83
2020/12/20 06:48:34;;;;;;;2.42;2.00;;;11.60;71.60;;;;;;5039797;28;20030;-82
2020/12/20 06:51:00;;;;;;;1.73;1.33;;;11.60;71.50;;;;;;5008779;28;20456;-83
2020/12/20 06:53:48;;;;;;;1.80;1.60;;;11.60;71.50;;;;;;5037656;28;20037;-80
2020/12/20 06:56:20;;;;;;;1.33;1.23;;;11.60;71.40;;;;;;5022171;28;20085;-82
2020/12/20 06:58:46;;;;;;;2.15;1.60;;;11.50;71.30;;;;;;5017437;28;20579;-82
2020/12/20 07:01:38;;;;;;;1.95;1.65;;;11.60;71.30;;;;;;5013037;28;20030;-83
2020/12/20 07:04:13;;;;;;;2.13;1.63;;;11.50;71.10;;;;;;5025134;28;20030;-82
2020/12/20 07:06:39;;;;;;;1.33;1.20;;;11.50;71.20;;;;;;5037090;28;20502;-83
2020/12/20 07:09:07;;;;;;;1.88;1.67;;;11.40;71.20;;;;;;5038689;28;20049;-83
2020/12/20 07:11:41;;;;;;;1.60;1.45;;;11.30;71.20;;;;;;5038477;28;20040;-84
2020/12/20 07:14:21;;;;;;;2.03;1.67;;;11.40;71.30;;;;;;5015260;28;20034;-85
2020/12/20 07:16:47;;;;;;;2.13;1.90;;;11.30;71.30;;;;;;5013180;28;20064;-84
2020/12/20 07:19:23;;;;;;;1.73;1.50;;;11.30;71.40;;;;;;5011903;28;20557;-85
2020/12/20 07:21:59;;;;;;;1.77;1.50;;;11.30;71.50;;;;;;5035701;28;20045;-85
2020/12/20 07:24:33;;;;;;;1.95;1.67;;;11.20;71.40;;;;;;5036139;28;20029;-85
2020/12/20 07:27:01;;;;;;;2.17;1.73;;;11.20;71.50;;;;;;5029067;28;20557;-84
2020/12/20 07:29:31;;;;;;;1.95;1.42;;;11.20;71.50;;;;;;5036789;28;20045;-84
2020/12/20 07:31:58;;;;;;;2.10;1.40;;;11.20;71.60;;;;;;5036150;28;20041;-84
2020/12/20 07:34:25;;;;;;;1.67;1.58;;;11.20;71.70;;;;;;5036419;28;20299;-84
2020/12/20 07:36:51;;;;;;;2.05;1.85;;;11.10;71.60;;;;;;5029101;28;20060;-85
2020/12/20 07:39:17;;;;;;;1.63;1.45;;;11.20;71.70;;;;;;5035903;28;20059;-85
2020/12/20 07:41:42;;;;;;;2.00;1.80;;;11.10;71.60;;;;;;5035401;28;20037;-84
2020/12/20 07:44:10;;;;;;;1.95;1.75;;;11.10;71.60;;;;;;5034324;28;20044;-84
2020/12/20 07:46:36;;;;;;;1.80;1.70;;;11.10;71.60;;;;;;5034660;28;20036;-85
2020/12/20 07:49:07;;;;;;;2.45;1.90;;;11.20;71.60;;;;;;5032970;28;20045;-84
2020/12/20 07:51:33;;;;;;;;;;;11.10;71.60;;;;;;5032172;28;20091;-84
2020/12/20 07:54:00;;;;;;;2.50;1.70;;;11.10;71.50;;;;;;5033226;28;20330;-85
2020/12/20 07:56:29;;;;;;;1.55;1.45;;;11.10;71.30;;;;;;5033280;28;20030;-83
2020/12/20 07:58:56;;;;;;;2.10;1.70;;;11.10;71.30;;;;;;5031394;28;20056;-84
2020/12/20 08:01:23;;;;;;;2.30;2.10;;;11.00;71.30;;;;;;5032781;28;20029;-84
2020/12/20 08:03:49;;;;;;;2.25;1.95;;;11.00;71.30;;;;;;5034578;28;20041;-84
2020/12/20 08:06:16;;;;;;;2.03;1.63;;;11.00;71.40;;;;;;5034650;28;20036;-85
2020/12/20 08:08:43;;;;;;;2.53;1.80;;;10.90;71.40;;;;;;5033969;28;20112;-84
2020/12/20 08:11:26;;;;;;;2.83;1.98;;;11.00;71.50;;;;;;5033865;28;20040;-84
2020/12/20 08:13:58;;;;;;;1.83;1.60;;;10.90;71.60;;;;;;5025823;28;20041;-83
2020/12/20 08:16:26;;;;;;;2.03;1.85;;;10.90;71.60;;;;;;5039759;28;20037;-83
2020/12/20 08:18:57;;;;;;;1.83;1.48;;;10.90;71.70;;;;;;5027802;28;20093;-83
2020/12/20 08:21:50;;;;;;;2.03;1.70;;;10.90;71.80;;;;;;5037521;28;20041;-81
2020/12/20 08:24:17;;;;;;;2.40;2.05;;;10.90;71.90;;;;;;5015092;28;20026;-81
2020/12/20 08:26:43;;;;;;;2.40;1.83;;;10.90;71.90;;;;;;5036554;28;20044;-81
2020/12/20 08:29:12;;;;;;;2.33;1.92;;;10.90;71.90;;;;;;5041748;28;20427;-82
2020/12/20 08:31:37;;;;;;;2.08;1.58;;;10.90;71.80;;;;;;5040722;28;20083;-82
2020/12/20 08:34:16;;;;;;;2.55;2.00;;;10.90;71.80;;;;;;5033272;28;20085;-82
2020/12/20 08:36:47;;;;;;;2.15;1.63;;;10.90;71.70;;;;;;5039017;28;20046;-80
2020/12/20 08:39:13;;;;;;;;;;;10.90;71.70;;;;;;5024999;28;20045;-82
2020/12/20 08:41:39;;;;;;;1.60;1.50;;;10.90;71.60;;;;;;5022845;28;19945;-83
2020/12/20 08:44:09;;;;;;;2.22;1.98;;;10.90;71.40;;;;;;5038479;28;20053;-82
2020/12/20 08:46:41;;;;;;;2.20;1.60;;;10.80;71.40;;;;;;5041288;28;20041;-82
2020/12/20 08:49:11;;;;;;;1.92;1.65;;;10.90;71.60;;;;;;5029166;28;20563;-81
2020/12/20 08:51:37;;;;;;;3.13;1.63;;;10.90;71.60;;;;;;5040336;28;20045;-82
2020/12/20 08:54:03;;;;;;;2.17;1.85;;;10.80;71.60;;;;;;5035355;28;20063;-82
2020/12/20 08:56:28;;;;;;;2.30;2.03;;;10.90;71.80;;;;;;5041881;28;20040;-82
2020/12/20 08:58:58;;;;;;;2.40;2.03;;;10.80;71.80;;;;;;5041559;28;20040;-82
2020/12/20 09:01:40;;;;;;;2.53;2.30;;;10.80;71.80;;;;;;5041826;28;20451;-82
2020/12/20 09:04:10;;;;;;;2.20;2.00;;;10.80;71.90;;;;;;5035083;28;20164;-82
2020/12/20 09:06:35;;;;;;;1.77;1.63;;;10.80;71.90;;;;;;5042543;28;20519;-83
2020/12/20 09:09:01;;;;;;;2.22;2.03;;;10.80;71.90;;;;;;5044255;28;20108;-83
2020/12/20 09:11:26;;;;;;;2.15;1.90;;;10.80;71.90;;;;;;5043319;28;20065;-81
2020/12/20 09:13:52;;;;;;;2.33;1.92;;;10.80;71.80;;;;;;5041396;28;20029;-82
2020/12/20 09:16:18;;;;;;;1.98;1.75;;;10.90;71.90;;;;;;5042853;28;20036;-83
2020/12/20 09:18:43;;;;;;;2.40;2.20;;;10.80;71.80;;;;;;5058193;23;20470;-76
2020/12/20 09:21:09;;;;;;;2.42;2.13;;;10.80;71.80;;;;;;5030325;28;20451;-76
2020/12/20 09:23:34;;;;;;;2.58;1.88;;;10.90;71.80;;;;;;5030895;28;20377;-76
2020/12/20 09:26:01;;;;;;;1.95;1.80;;;10.80;71.90;;;;;;5031602;28;20029;-75
2020/12/20 09:28:29;;;;;;;2.42;1.92;;;10.90;72.00;;;;;;5020506;28;20027;-75
2020/12/20 09:30:56;;;;;;;2.53;2.25;;;10.80;72.00;;;;;;5011506;28;20041;-75
2020/12/20 09:33:33;;;;;;;2.50;2.30;;;10.80;72.10;;;;;;5011289;28;20109;-74
2020/12/20 09:36:23;;;;;;;2.63;2.38;;;10.80;72.20;;;;;;5004873;28;20057;-75
2020/12/20 09:38:51;;;;;;;2.35;2.15;;;10.80;72.30;;;;;;5010569;28;20065;-76
2020/12/20 09:41:21;;;;;;;2.90;1.75;;;10.90;72.40;;;;;;5011466;28;20037;-75
2020/12/20 09:43:49;;;;;;;5.03;2.05;;;10.90;72.60;;;;;;5006562;28;20520;-76
2020/12/20 09:46:28;;;;;;;3.90;2.20;;;11.00;72.70;;;;;;5011426;28;20049;-76
2020/12/20 09:48:56;;;;;;;2.40;1.95;;;11.10;72.90;;;;;;4994527;28;20374;-76
2020/12/20 09:51:22;;;;;;;2.65;1.73;;;11.10;73.00;;;;;;4992410;28;20058;-75
2020/12/20 09:53:48;;;;;;;1.67;1.58;;;11.20;73.10;;;;;;5007929;28;20030;-75
2020/12/20 09:56:14;;;;;;;2.63;2.35;;;11.20;73.20;;;;;;5008243;28;20053;-75
2020/12/20 09:58:40;;;;;;;2.22;2.03;;;11.30;73.30;;;;;;5002496;28;20038;-76
2020/12/20 10:01:06;;;;;;;2.75;2.22;;;11.30;73.30;;;;;;5002126;28;20038;-75
2020/12/20 10:03:31;;;;;;;3.50;3.03;;;11.50;73.40;;;;;;5005134;28;20547;-74
2020/12/20 10:05:58;;;;;;;4.03;3.40;;;11.50;73.30;;;;;;5004001;28;20038;-78
2020/12/20 10:08:25;;;;;;;2.92;2.63;;;11.60;73.30;;;;;;5007326;28;20548;-75
2020/12/20 10:10:52;;;;;;;2.83;2.60;;;11.70;73.30;;;;;;5008105;28;20129;-76
2020/12/20 10:13:18;;;;;;;3.42;2.60;;;11.70;73.20;;;;;;5005110;28;20406;-78
2020/12/20 10:15:43;;;;;;;2.70;2.50;;;11.80;73.20;;;;;;5007248;28;20121;-76
2020/12/20 10:18:09;;;;;;;2.65;2.40;;;11.90;73.20;;;;;;5007485;28;20120;-76
2020/12/20 10:20:34;;;;;;;2.70;2.47;;;11.90;73.10;;;;;;5003887;28;20038;-76
2020/12/20 10:23:00;;;;;;;3.08;2.63;;;12.10;73.00;;;;;;5003698;28;20057;-76
2020/12/20 10:25:26;;;;;;;3.10;2.55;;;12.10;72.90;;;;;;5006624;28;20106;-76
2020/12/20 10:27:55;;;;;;;2.38;2.03;;;12.20;72.80;;;;;;4996929;28;20132;-76
2020/12/20 10:30:22;;;;;;;2.47;2.28;;;12.20;72.70;;;;;;5002870;28;20033;-76
2020/12/20 10:32:47;;;;;;;2.60;2.17;;;12.20;72.60;;;;;;5008126;28;20076;-74
2020/12/20 10:35:14;;;;;;;2.65;2.42;;;12.30;72.60;;;;;;5004228;28;20397;-79
2020/12/20 10:37:39;;;;;;;2.38;2.17;;;12.40;72.60;;;;;;5004028;28;20116;-75
2020/12/20 10:40:05;;;;;;;2.17;1.98;;;12.40;72.60;;;;;;5008138;28;20543;-75
2020/12/20 10:42:30;;;;;;;2.40;2.05;;;12.40;72.50;;;;;;5007496;28;20141;-75
2020/12/20 10:44:56;;;;;;;2.50;1.98;;;12.50;72.50;;;;;;5002181;28;20511;-74
2020/12/20 10:47:24;;;;;;;2.20;1.98;;;12.50;72.40;;;;;;5008096;28;20100;-76
2020/12/20 10:49:51;;;;;;;3.03;2.13;;;12.50;72.30;;;;;;5001993;28;20030;-76
2020/12/20 10:52:17;;;;;;;2.45;1.98;;;12.50;72.30;;;;;;4989711;28;20627;-75
2020/12/20 10:54:44;;;;;;;2.08;1.85;;;12.60;72.30;;;;;;5005072;28;20045;-75
2020/12/20 10:57:09;;;;;;;2.58;2.38;;;12.60;72.20;;;;;;4986703;28;20037;-74
2020/12/20 10:59:35;;;;;;;3.28;2.28;;;12.60;72.20;;;;;;5003084;28;20038;-77
2020/12/20 11:02:00;;;;;;;2.42;2.22;;;12.70;72.20;;;;;;5006049;28;20034;-74
2020/12/20 11:04:26;;;;;;;2.58;2.28;;;12.70;72.20;;;;;;5002212;28;20034;-76
2020/12/20 11:06:56;;;;;;;2.97;2.63;;;12.70;72.20;;;;;;5005461;28;20507;-76
2020/12/20 11:09:26;;;;;;;2.50;2.30;;;12.70;72.10;;;;;;5005635;28;20030;-75
2020/12/20 11:11:52;;;;;;;2.70;2.28;;;12.80;72.20;;;;;;5004412;28;20483;-75
2020/12/20 11:14:18;;;;;;;3.00;2.70;;;12.80;72.20;;;;;;5001619;28;20054;-76
2020/12/20 11:16:43;;;;;;;2.53;2.33;;;12.80;72.10;;;;;;5004347;28;20058;-77
2020/12/20 11:19:09;;;;;;;2.80;2.47;;;12.90;72.20;;;;;;5001987;28;20495;-76
2020/12/20 11:21:35;;;;;;;3.13;2.25;;;12.90;72.10;;;;;;5005206;28;20122;-76
2020/12/20 11:24:00;;;;;;;1.80;1.70;;;12.90;72.10;;;;;;5004444;28;20030;-76
2020/12/20 11:26:26;;;;;;;2.40;2.20;;;12.90;72.10;;;;;;4993682;28;20583;-77
2020/12/20 11:28:53;;;;;;;2.35;2.15;;;13.00;72.30;;;;;;4988521;28;20561;-77
2020/12/20 11:31:24;;;;;;;2.30;1.85;;;13.00;72.30;;;;;;4996591;28;20034;-77
2020/12/20 11:33:51;;;;;;;3.20;2.25;;;13.00;72.20;;;;;;4995106;28;20112;-77
2020/12/20 11:36:18;;;;;;;3.67;2.45;;;13.00;72.20;;;;;;5003095;28;20053;-77
2020/12/20 11:38:45;;;;;;;2.97;2.65;;;13.10;72.30;;;;;;4999553;28;20038;-76
2020/12/20 11:41:10;;;;;;;3.00;2.28;;;13.20;72.50;;;;;;5002015;28;20038;-77
2020/12/20 11:43:37;;;;;;;2.47;2.25;;;13.20;72.50;;;;;;5003959;28;20026;-77
2020/12/20 11:46:03;;;;;;;2.60;2.38;;;13.20;72.60;;;;;;5004613;28;20038;-77
2020/12/20 11:48:28;;;;;;;3.60;2.38;;;13.30;72.60;;;;;;4999448;28;20060;-76
2020/12/20 11:50:54;;;;;;;2.40;2.10;;;13.30;72.50;;;;;;4996146;28;20963;-76
2020/12/20 11:53:19;;;;;;;2.50;2.30;;;13.40;72.50;;;;;;4987795;28;20473;-77
2020/12/20 11:55:45;;;;;;;2.40;2.20;;;13.40;72.30;;;;;;4993686;28;20037;-77
2020/12/20 11:58:16;;;;;;;2.10;1.85;;;13.50;72.20;;;;;;4998115;28;20049;-77
2020/12/20 12:00:43;;;;;;;2.72;2.20;;;13.50;72.00;;;;;;5004985;28;20505;-77
2020/12/20 12:03:10;;;;;;;2.38;2.17;;;13.50;71.80;;;;;;5003131;28;20560;-77
2020/12/20 12:05:36;;;;;;;2.50;2.25;;;13.50;71.70;;;;;;4999738;28;21853;-76
2020/12/20 12:08:02;;;;;;;2.10;1.80;;;13.50;71.70;;;;;;4997514;28;20120;-76
2020/12/20 12:10:28;;;;;;;2.88;2.17;;;13.50;71.60;;;;;;4989316;28;20577;-77
2020/12/20 12:12:53;;;;;;;3.10;2.80;;;13.50;71.60;;;;;;4999725;28;20528;-77
2020/12/20 12:15:19;;;;;;;2.40;2.13;;;13.50;71.50;;;;;;4996351;28;20061;-77
2020/12/20 12:17:45;;;;;;;2.70;2.50;;;13.50;71.50;;;;;;5004729;28;20034;-77
2020/12/20 12:20:11;;;;;;;3.88;2.53;;;13.50;71.50;;;;;;5000728;28;20032;-77
2020/12/20 12:22:36;;;;;;;2.55;2.25;;;13.50;71.50;;;;;;5003551;28;20114;-76
2020/12/20 12:25:02;;;;;;;4.35;2.58;;;13.40;71.40;;;;;;4998993;28;20026;-78
2020/12/20 12:27:27;;;;;;;2.40;2.20;;;13.50;71.40;;;;;;5004979;28;20030;-76
2020/12/20 12:29:52;;;;;;;2.97;2.40;;;13.50;71.40;;;;;;4999202;28;20080;-75
2020/12/20 12:32:18;;;;;;;2.42;2.22;;;13.40;71.30;;;;;;5007598;28;20038;-77
2020/12/20 12:34:43;;;;;;;2.53;2.33;;;13.50;71.40;;;;;;5002123;28;20180;-77
2020/12/20 12:37:09;;;;;;;2.40;2.20;;;13.40;71.40;;;;;;5006858;28;20019;-77
2020/12/20 12:39:35;;;;;;;2.80;2.20;;;13.50;71.50;;;;;;5006127;28;20033;-79
2020/12/20 12:42:04;;;;;;;2.38;2.08;;;13.40;71.40;;;;;;5005393;28;20041;-77
2020/12/20 12:44:30;;;;;;;2.22;1.73;;;13.40;71.30;;;;;;4998198;28;20046;-77
2020/12/20 12:46:55;;;;;;;2.78;2.35;;;13.40;71.40;;;;;;5003912;28;20029;-77